JOH635 EFKU-EFJY

Flight info

Callsign JOH635
Flight time 0h 23m
Altitude 8000
Route DCT
Aircraft SF50/L-SG/L

Departure

Time 2026-04-20 08:21
Airport Kuopio Airport (EFKU)

Arrival

Time 2026-04-20 08:44
Airport Jyväskylä Airport (EFJY)
Time Latitude Longitude Altitude Speed Heading
2026-04-20 08:19 63.00113 27.79886 299 ft 0 kts 158°
2026-04-20 08:19 63.00082 27.79913 298 ft 9 kts 159°
2026-04-20 08:19 62.99993 27.79994 297 ft 16 kts 153°
2026-04-20 08:19 62.99980 27.80202 295 ft 16 kts 37°
2026-04-20 08:20 63.00091 27.80254 294 ft 16 kts
2026-04-20 08:20 63.00219 27.80236 295 ft 33 kts 338°
2026-04-20 08:20 63.00679 27.79810 304 ft 105 kts 338°
2026-04-20 08:20 63.01443 27.79085 504 ft 123 kts 335°
2026-04-20 08:21 63.01948 27.77704 761 ft 132 kts 277°
2026-04-20 08:21 63.01517 27.75663 852 ft 168 kts 220°
2026-04-20 08:21 63.00562 27.74217 1320 ft 171 kts 216°
2026-04-20 08:21 62.99580 27.72573 1626 ft 183 kts 221°
2026-04-20 08:22 62.98723 27.70487 2041 ft 184 kts 240°
2026-04-20 08:22 62.98084 27.68135 2578 ft 176 kts 238°
2026-04-20 08:22 62.97358 27.66039 3111 ft 171 kts 233°
2026-04-20 08:22 62.96687 27.63925 3593 ft 172 kts 244°
2026-04-20 08:23 62.96152 27.61608 4105 ft 171 kts 245°
2026-04-20 08:23 62.95589 27.59310 4556 ft 174 kts 244°
2026-04-20 08:23 62.94939 27.57028 4996 ft 177 kts 239°
2026-04-20 08:23 62.94246 27.54824 5448 ft 178 kts 238°
2026-04-20 08:24 62.93536 27.52563 5889 ft 180 kts 239°
2026-04-20 08:24 62.92879 27.50280 6326 ft 180 kts 243°
2026-04-20 08:24 62.92258 27.47880 6763 ft 180 kts 244°
2026-04-20 08:24 62.91675 27.45405 7008 ft 187 kts 246°
2026-04-20 08:25 62.91101 27.42812 7303 ft 190 kts 247°
2026-04-20 08:25 62.90515 27.40203 7539 ft 196 kts 245°
2026-04-20 08:25 62.89820 27.37559 7721 ft 204 kts 240°
2026-04-20 08:25 62.88972 27.35056 7845 ft 207 kts 234°
2026-04-20 08:26 62.88069 27.32540 7929 ft 209 kts 234°
2026-04-20 08:26 62.87197 27.29940 7911 ft 213 kts 236°
2026-04-20 08:26 62.86315 27.27329 7946 ft 214 kts 236°
2026-04-20 08:26 62.85458 27.24664 8001 ft 213 kts 237°
2026-04-20 08:27 62.84607 27.22015 7981 ft 215 kts 238°
2026-04-20 08:27 62.83799 27.19251 8000 ft 215 kts 240°
2026-04-20 08:27 62.83027 27.16438 8030 ft 214 kts 242°
2026-04-20 08:27 62.82310 27.13579 8058 ft 214 kts 243°
2026-04-20 08:28 62.81614 27.10694 8026 ft 216 kts 244°
2026-04-20 08:28 62.80902 27.07814 8006 ft 218 kts 243°
2026-04-20 08:28 62.80183 27.04891 7999 ft 218 kts 244°
2026-04-20 08:28 62.79470 27.01935 7998 ft 218 kts 244°
2026-04-20 08:29 62.78767 26.99002 7998 ft 219 kts 244°
2026-04-20 08:29 62.78061 26.96088 7998 ft 219 kts 244°
2026-04-20 08:29 62.77345 26.93120 7998 ft 220 kts 244°
2026-04-20 08:29 62.76634 26.90159 7998 ft 220 kts 244°
2026-04-20 08:30 62.75927 26.87202 7998 ft 220 kts 244°
2026-04-20 08:30 62.75214 26.84235 7998 ft 221 kts 244°
2026-04-20 08:30 62.74492 26.81239 7998 ft 221 kts 244°
2026-04-20 08:30 62.73777 26.78280 7998 ft 221 kts 244°
2026-04-20 08:31 62.73059 26.75321 7998 ft 222 kts 244°
2026-04-20 08:31 62.72332 26.72342 7923 ft 222 kts 244°
2026-04-20 08:31 62.71607 26.69373 7669 ft 220 kts 243°
2026-04-20 08:31 62.70733 26.66642 7419 ft 221 kts 235°
2026-04-20 08:32 62.69801 26.63984 7167 ft 220 kts 235°
2026-04-20 08:32 62.68864 26.61312 6913 ft 219 kts 235°
2026-04-20 08:32 62.67935 26.58677 6662 ft 219 kts 235°
2026-04-20 08:32 62.67016 26.56067 6411 ft 219 kts 235°
2026-04-20 08:33 62.66076 26.53411 6132 ft 221 kts 235°
2026-04-20 08:33 62.64190 26.48088 5627 ft 221 kts 235°
2026-04-20 08:33 62.63255 26.45441 5376 ft 221 kts 235°
2026-04-20 08:34 62.62331 26.42826 5128 ft 220 kts 235°
2026-04-20 08:34 62.61399 26.40187 4876 ft 221 kts 235°
2026-04-20 08:34 62.60507 26.37465 4624 ft 220 kts 239°
2026-04-20 08:34 62.59666 26.34715 4417 ft 219 kts 238°
2026-04-20 08:35 62.58825 26.31922 4216 ft 220 kts 240°
2026-04-20 08:35 62.58040 26.29053 4015 ft 221 kts 241°
2026-04-20 08:35 62.57258 26.26164 3814 ft 222 kts 241°
2026-04-20 08:35 62.56479 26.23276 3615 ft 223 kts 241°
2026-04-20 08:36 62.55694 26.20373 3416 ft 222 kts 241°
2026-04-20 08:36 62.54907 26.17461 3213 ft 223 kts 241°
2026-04-20 08:36 62.54132 26.14587 3015 ft 223 kts 241°
2026-04-20 08:36 62.53345 26.11663 2815 ft 223 kts 241°
2026-04-20 08:37 62.52520 26.08806 2616 ft 223 kts 237°
2026-04-20 08:37 62.51639 26.06001 2412 ft 221 kts 237°
2026-04-20 08:37 62.50780 26.03273 2212 ft 221 kts 237°
2026-04-20 08:37 62.49854 26.00619 2034 ft 220 kts 232°
2026-04-20 08:38 62.48821 25.98197 1976 ft 213 kts 224°
2026-04-20 08:38 62.47737 25.96123 1931 ft 203 kts 223°
2026-04-20 08:38 62.46693 25.94196 1884 ft 195 kts 223°
2026-04-20 08:38 62.45672 25.92312 1957 ft 185 kts 223°
2026-04-20 08:39 62.44833 25.90249 1911 ft 182 kts 239°
2026-04-20 08:39 62.44187 25.87947 1936 ft 177 kts 241°
2026-04-20 08:39 62.43590 25.85621 1942 ft 177 kts 250°
2026-04-20 08:39 62.43154 25.83126 1969 ft 175 kts 251°
2026-04-20 08:40 62.42684 25.80700 1992 ft 174 kts 243°
2026-04-20 08:40 62.41844 25.78747 1838 ft 184 kts 218°
2026-04-20 08:40 62.40748 25.77318 1765 ft 186 kts 213°
2026-04-20 08:40 62.39831 25.75521 1875 ft 177 kts 229°
2026-04-20 08:41 62.38992 25.73503 1828 ft 172 kts 232°
2026-04-20 08:41 62.38712 25.71371 1782 ft 139 kts 259°
2026-04-20 08:41 62.38145 25.69845 1724 ft 130 kts 212°
2026-04-20 08:41 62.37290 25.69340 1633 ft 130 kts 183°
2026-04-20 08:42 62.36404 25.69637 1500 ft 131 kts 158°
2026-04-20 08:42 62.35732 25.70887 1400 ft 128 kts 115°
2026-04-20 08:42 62.35780 25.72667 1281 ft 121 kts 50°
2026-04-20 08:42 62.36471 25.73449 1262 ft 113 kts
2026-04-20 08:43 62.37232 25.73113 1110 ft 109 kts 338°
2026-04-20 08:43 62.37797 25.72400 968 ft 91 kts 325°
2026-04-20 08:43 62.38268 25.71511 764 ft 90 kts 321°
2026-04-20 08:43 62.38713 25.70587 598 ft 87 kts 317°
2026-04-20 08:44 62.39123 25.69668 458 ft 79 kts 319°
2026-04-20 08:44 62.39452 25.68947 425 ft 55 kts 316°
2026-04-20 08:44 62.39711 25.68374 435 ft 54 kts 315°
2026-04-20 08:44 62.39967 25.67824 452 ft 39 kts 315°
2026-04-20 08:45 62.40128 25.67529 453 ft 21 kts 14°
2026-04-20 08:45 62.40229 25.67700 457 ft 17 kts 44°
2026-04-20 08:45 62.40316 25.67847 460 ft 14 kts 358°
2026-04-20 08:45 62.40356 25.67726 458 ft 6 kts 239°
2026-04-20 08:46 62.40324 25.67768 459 ft 6 kts 136°
2026-04-20 08:46 62.40323 25.67782 459 ft 0 kts 33°